Terminal Aerodrome Forecast
Issued by NWS

Current Version | Previous Version | Text Only | Print | Product List | Glossary On
Versions: 1 2 3 4 5 6 7 8 9 10 11 12 13 14 15 16 17 18 19 20 21 22 23 24 25 26 27 28 29 30 31
000
FTAK31 PANC 231132 AAA
TAFAGK
TAF AMD
PAGK 231132Z 2312/2412 32003KT P6SM BKN009 BKN080
      TEMPO 2312/2316 FEW009 BKN040
     FM231700 VRB03KT P6SM OVC050=

USA.gov is the U.S. government's official web portal to all federal, state and local government web resources and services.